Time;durP1;ratioP1;P1;durP2;ratioP2;P2;SDS_P1;SDS_P2;PMS_P1;PMS_P2;Temp;Humidity;BMP_temperature;BMP_pressure;BME280_temperature;BME280_humidity;BME280_pressure;Samples;Min_cycle;Max_cycle;Signal;HPM_P1;HPM_P2
2021/12/05 00:22:53;;;;;;;2.10;1.60;;;7.70;77.40;;;;;;5055691;28;20033;-86
2021/12/05 00:25:26;;;;;;;2.60;2.10;;;7.60;77.30;;;;;;5037957;28;20044;-86
2021/12/05 00:55:03;;;;;;;2.47;1.67;;;7.70;77.30;;;;;;5037744;28;19962;-85
2021/12/05 01:11:08;;;;;;;2.22;1.60;;;7.60;77.30;;;;;;5039822;28;20095;-84
2021/12/05 01:13:58;;;;;;;2.15;1.70;;;7.60;77.30;;;;;;5037191;28;20021;-87
2021/12/05 01:16:29;;;;;;;3.25;1.70;;;7.60;77.30;;;;;;5040993;28;20087;-88
2021/12/05 01:18:59;;;;;;;2.03;1.77;;;7.60;77.90;;;;;;5037159;28;20097;-86
2021/12/05 01:21:27;;;;;;;2.30;1.85;;;7.60;77.30;;;;;;5053949;28;20573;-87
2021/12/05 01:24:04;;;;;;;2.92;1.77;;;7.60;77.30;;;;;;5053834;28;20021;-86
2021/12/05 01:29:20;;;;;;;2.22;1.70;;;7.60;77.30;;;;;;5054139;28;20043;-86
2021/12/05 02:09:11;;;;;;;2.42;1.65;;;7.50;77.30;;;;;;5057287;28;20037;-85
2021/12/05 02:12:04;;;;;;;1.70;1.60;;;7.50;77.30;;;;;;5040834;28;20082;-86
2021/12/05 02:41:49;;;;;;;4.32;1.73;;;7.40;77.30;;;;;;5056639;28;20281;-86
2021/12/05 02:46:52;;;;;;;4.15;1.80;;;7.40;77.30;;;;;;5056538;28;20037;-85
2021/12/05 02:49:18;;;;;;;2.67;1.65;;;7.40;77.30;;;;;;5039646;28;20033;-91
2021/12/05 02:51:52;;;;;;;3.03;1.80;;;7.40;77.30;;;;;;5056371;28;20060;-88
2021/12/05 02:54:22;;;;;;;2.67;1.70;;;7.40;77.30;;;;;;5024960;28;20037;-87
2021/12/05 02:56:51;;;;;;;2.00;1.65;;;7.40;77.30;;;;;;5056053;28;20021;-91
2021/12/05 02:59:31;;;;;;;3.10;1.70;;;7.40;77.30;;;;;;5023019;28;20120;-85
2021/12/05 03:02:05;;;;;;;2.47;1.60;;;7.40;77.30;;;;;;5056814;28;20037;-89
2021/12/05 03:04:33;;;;;;;2.45;1.60;;;7.40;77.20;;;;;;5040086;28;20051;-86
2021/12/05 03:07:04;;;;;;;2.67;1.90;;;7.40;77.20;;;;;;5055956;28;20036;-90
2021/12/05 03:09:34;;;;;;;2.75;1.92;;;7.40;77.20;;;;;;5040740;28;20090;-90
2021/12/05 03:12:01;;;;;;;1.73;1.48;;;7.40;77.20;;;;;;5039547;28;20101;-86
2021/12/05 03:14:27;;;;;;;2.28;1.60;;;7.40;77.20;;;;;;5039573;28;20025;-90
2021/12/05 03:16:53;;;;;;;2.38;1.60;;;7.40;77.20;;;;;;5055853;28;20036;-90
2021/12/05 03:19:22;;;;;;;1.77;1.35;;;7.40;77.20;;;;;;5055808;28;20029;-86
2021/12/05 03:21:52;;;;;;;3.50;1.60;;;7.40;77.30;;;;;;5040013;28;20041;-86
2021/12/05 03:24:24;;;;;;;2.67;1.90;;;7.40;77.20;;;;;;5055337;28;20035;-89
2021/12/05 03:26:53;;;;;;;3.17;1.65;;;7.40;77.20;;;;;;5039270;28;20091;-85
2021/12/05 03:29:21;;;;;;;3.15;1.70;;;7.40;77.20;;;;;;5038967;28;20036;-87
2021/12/05 03:31:48;;;;;;;3.63;2.03;;;7.40;77.30;;;;;;5023048;28;20032;-87
2021/12/05 03:34:22;;;;;;;2.90;1.70;;;7.30;77.20;;;;;;5039341;28;20025;-89
2021/12/05 03:36:52;;;;;;;2.35;1.73;;;7.40;77.30;;;;;;5038970;28;20029;-87
2021/12/05 03:39:19;;;;;;;1.92;1.50;;;7.30;77.20;;;;;;5039017;28;20116;-86
2021/12/05 03:41:53;;;;;;;2.60;1.75;;;7.30;77.20;;;;;;5039243;28;20025;-86
2021/12/05 03:44:23;;;;;;;3.13;1.67;;;7.30;77.20;;;;;;5055856;28;20032;-87
2021/12/05 03:46:53;;;;;;;1.77;1.55;;;7.30;77.20;;;;;;5038374;28;20025;-86
2021/12/05 03:49:22;;;;;;;2.92;1.60;;;7.30;77.20;;;;;;5055619;28;20457;-86
2021/12/05 03:51:59;;;;;;;2.10;1.60;;;7.30;77.20;;;;;;5038320;28;20025;-85
2021/12/05 03:54:25;;;;;;;3.45;1.75;;;7.30;77.20;;;;;;5039273;28;20021;-86
2021/12/05 03:56:54;;;;;;;2.42;1.70;;;7.30;77.20;;;;;;5023067;28;20017;-85
2021/12/05 03:59:27;;;;;;;3.92;1.77;;;7.30;77.20;;;;;;5055061;28;20554;-86
2021/12/05 04:01:55;;;;;;;2.95;1.60;;;7.30;77.20;;;;;;5055357;28;20465;-86
2021/12/05 04:04:21;;;;;;;1.73;1.45;;;7.30;77.20;;;;;;5038322;28;20033;-86
2021/12/05 04:06:49;;;;;;;2.28;1.55;;;7.30;77.20;;;;;;5038774;28;20047;-85
2021/12/05 04:09:17;;;;;;;2.92;1.70;;;7.30;77.20;;;;;;5037767;28;20029;-88
2021/12/05 04:11:58;;;;;;;2.50;1.70;;;7.30;77.20;;;;;;5037930;28;20029;-88
2021/12/05 04:14:29;;;;;;;3.10;1.60;;;7.30;77.20;;;;;;5054645;28;20029;-90
2021/12/05 04:16:58;;;;;;;3.10;1.80;;;7.30;77.20;;;;;;5037691;28;20025;-86
2021/12/05 04:19:27;;;;;;;2.40;1.80;;;7.30;77.20;;;;;;5037480;28;20032;-89
2021/12/05 04:21:53;;;;;;;2.17;1.70;;;7.30;77.20;;;;;;5037580;28;20040;-88
2021/12/05 04:24:21;;;;;;;1.85;1.40;;;7.30;77.20;;;;;;5054280;28;20025;-87
2021/12/05 04:26:48;;;;;;;2.33;1.52;;;7.30;77.20;;;;;;5037559;28;20079;-86
2021/12/05 04:29:15;;;;;;;1.88;1.50;;;7.30;77.20;;;;;;5037860;28;20039;-88
2021/12/05 04:31:41;;;;;;;2.47;1.63;;;7.20;77.20;;;;;;5055578;28;20033;-86
2021/12/05 04:34:08;;;;;;;3.45;1.70;;;7.30;77.20;;;;;;5053732;28;20480;-87
2021/12/05 04:36:34;;;;;;;2.55;1.60;;;7.20;77.20;;;;;;5037337;28;20032;-88
2021/12/05 04:39:05;;;;;;;2.38;1.50;;;7.20;77.20;;;;;;5037897;28;20032;-89
2021/12/05 04:41:33;;;;;;;2.78;2.25;;;7.30;77.30;;;;;;5037749;28;20039;-87
2021/12/05 04:44:00;;;;;;;2.65;1.90;;;7.30;77.30;;;;;;5054104;28;20017;-86
2021/12/05 04:46:29;;;;;;;2.72;1.80;;;7.30;77.30;;;;;;5037505;28;20108;-85
2021/12/05 04:48:59;;;;;;;3.60;1.77;;;7.30;77.30;;;;;;5037424;28;20412;-86
2021/12/05 04:51:33;;;;;;;3.00;1.70;;;7.30;77.30;;;;;;5054453;28;20063;-90
2021/12/05 04:54:03;;;;;;;3.72;1.70;;;7.30;77.30;;;;;;5037849;28;20021;-87
2021/12/05 04:56:31;;;;;;;3.45;1.83;;;7.20;77.20;;;;;;5036702;28;20167;-85
2021/12/05 04:58:58;;;;;;;2.63;1.80;;;7.20;77.30;;;;;;5053591;28;20031;-86
2021/12/05 05:01:29;;;;;;;2.55;1.58;;;7.20;77.30;;;;;;5054334;28;20068;-87
2021/12/05 05:03:55;;;;;;;3.90;1.70;;;7.30;77.30;;;;;;5037374;28;20029;-85
2021/12/05 05:06:22;;;;;;;1.55;1.45;;;7.30;77.30;;;;;;5037192;28;20059;-84
2021/12/05 05:08:54;;;;;;;2.63;1.70;;;7.20;77.30;;;;;;5037431;28;20029;-85
2021/12/05 05:11:25;;;;;;;2.00;1.70;;;7.30;77.30;;;;;;5053878;28;20051;-86
2021/12/05 05:13:52;;;;;;;2.78;1.77;;;7.20;77.30;;;;;;5036968;28;20028;-87
2021/12/05 05:16:22;;;;;;;2.53;1.77;;;7.30;77.30;;;;;;5053870;28;20032;-88
2021/12/05 05:18:55;;;;;;;2.92;1.95;;;7.30;77.30;;;;;;5053740;28;20049;-86
2021/12/05 05:43:23;;;;;;;2.10;1.60;;;7.20;77.30;;;;;;5053524;28;20044;-86
2021/12/05 05:51:04;;;;;;;2.72;1.88;;;7.20;77.40;;;;;;5053305;28;20044;-87
2021/12/05 05:53:30;;;;;;;1.77;1.40;;;7.20;77.40;;;;;;5053360;28;20055;-86
2021/12/05 05:55:58;;;;;;;1.95;1.70;;;7.30;77.50;;;;;;5036551;28;20025;-87
2021/12/05 06:01:32;;;;;;;1.95;1.67;;;7.30;77.50;;;;;;5036154;28;20045;-88
2021/12/05 06:04:02;;;;;;;1.88;1.60;;;7.30;77.50;;;;;;5040054;28;20029;-87
2021/12/05 06:06:32;;;;;;;1.77;1.60;;;7.20;77.40;;;;;;5037280;28;20056;-87
2021/12/05 06:09:05;;;;;;;2.22;1.80;;;7.30;77.50;;;;;;5036864;28;20079;-86
2021/12/05 06:11:31;;;;;;;1.85;1.60;;;7.30;77.50;;;;;;5052788;28;20060;-86
2021/12/05 06:13:59;;;;;;;2.35;1.80;;;7.30;77.40;;;;;;5019737;28;20060;-85
2021/12/05 06:16:26;;;;;;;1.95;1.73;;;7.30;77.50;;;;;;5037054;28;20087;-87
2021/12/05 06:18:52;;;;;;;2.63;1.85;;;7.30;77.40;;;;;;5053873;28;20039;-86
2021/12/05 06:21:18;;;;;;;1.75;1.60;;;7.30;77.40;;;;;;5036603;28;20025;-90
2021/12/05 06:23:44;;;;;;;2.10;1.60;;;7.30;77.40;;;;;;5036598;28;20028;-86
2021/12/05 06:26:13;;;;;;;2.28;1.73;;;7.30;77.50;;;;;;5053389;28;20143;-85
2021/12/05 06:28:44;;;;;;;1.65;1.50;;;7.30;77.50;;;;;;5020085;28;20133;-85
2021/12/05 06:31:31;;;;;;;2.65;1.80;;;7.30;77.40;;;;;;5020557;28;20423;-87
2021/12/05 06:39:39;;;;;;;2.00;1.80;;;7.30;77.40;;;;;;5053831;28;20124;-85
2021/12/05 06:47:36;;;;;;;1.75;1.65;;;7.30;77.40;;;;;;5039703;28;20029;-86
2021/12/05 06:50:07;;;;;;;1.98;1.70;;;7.30;77.40;;;;;;5022621;28;20085;-87
2021/12/05 06:52:33;;;;;;;2.25;1.80;;;7.30;77.50;;;;;;5023037;28;20033;-86
2021/12/05 06:55:01;;;;;;;1.70;1.60;;;7.30;77.40;;;;;;5022886;28;20067;-86
2021/12/05 06:57:27;;;;;;;1.80;1.67;;;7.40;77.50;;;;;;5023336;28;20029;-87
2021/12/05 06:59:53;;;;;;;2.08;1.60;;;7.40;77.50;;;;;;5023416;28;20025;-85
2021/12/05 07:02:20;;;;;;;2.42;1.80;;;7.40;77.50;;;;;;5023339;28;20036;-89
2021/12/05 07:05:14;;;;;;;1.98;1.77;;;7.40;77.50;;;;;;5039226;28;20036;-89
2021/12/05 07:07:42;;;;;;;1.40;1.30;;;7.40;78.10;;;;;;5056124;28;20036;-85
2021/12/05 07:10:11;;;;;;;2.03;1.80;;;7.30;77.30;;;;;;5055622;28;20112;-86
2021/12/05 07:13:28;;;;;;;1.90;1.60;;;7.40;77.40;;;;;;5039143;28;20186;-88
2021/12/05 07:15:56;;;;;;;1.77;1.55;;;7.40;77.50;;;;;;5044158;28;20037;-87
2021/12/05 07:21:22;;;;;;;1.92;1.70;;;7.40;77.40;;;;;;5056263;28;20120;-88
2021/12/05 07:42:47;;;;;;;1.52;1.42;;;7.30;77.50;;;;;;5056036;28;20079;-88
2021/12/05 07:45:19;;;;;;;1.60;1.50;;;7.40;77.60;;;;;;5038822;28;20024;-88
2021/12/05 07:47:49;;;;;;;1.70;1.60;;;7.40;77.60;;;;;;5056000;28;20029;-86
2021/12/05 07:50:16;;;;;;;1.50;1.40;;;7.40;77.60;;;;;;5056457;28;20399;-89
2021/12/05 07:52:49;;;;;;;2.45;1.50;;;7.40;77.60;;;;;;5054438;28;20059;-87
2021/12/05 07:55:50;;;;;;;1.80;1.60;;;7.40;77.60;;;;;;5042761;28;20577;-85
2021/12/05 07:58:48;;;;;;;2.00;1.73;;;7.40;77.50;;;;;;5038486;28;20029;-84
2021/12/05 08:15:10;;;;;;;2.00;1.80;;;7.40;77.50;;;;;;5054982;28;20025;-86
2021/12/05 08:17:32;;;;;;;1.67;1.58;;;7.40;77.50;;;;;;5053918;28;20124;-87
2021/12/05 08:20:03;;;;;;;1.77;1.67;;;7.40;77.50;;;;;;5037794;28;20470;-88
2021/12/05 08:22:31;;;;;;;1.95;1.60;;;7.40;77.50;;;;;;5007083;28;20494;-85
2021/12/05 08:25:00;;;;;;;2.20;1.92;;;7.40;77.50;;;;;;5037694;28;20089;-87
2021/12/05 08:27:26;;;;;;;2.22;1.65;;;7.50;77.60;;;;;;5038202;28;20035;-86
2021/12/05 08:29:56;;;;;;;1.92;1.80;;;7.50;77.50;;;;;;5054694;28;20107;-86
2021/12/05 08:32:34;;;;;;;1.65;1.55;;;7.50;77.60;;;;;;5038834;28;20028;-86
2021/12/05 08:35:12;;;;;;;2.30;1.95;;;7.50;77.60;;;;;;5037975;28;20053;-87
2021/12/05 09:40:11;;;;;;;1.80;1.70;;;7.60;77.60;;;;;;5023012;28;20047;-85
2021/12/05 10:26:28;;;;;;;2.65;2.15;;;7.60;77.70;;;;;;5056549;28;20065;-83
2021/12/05 10:34:53;;;;;;;1.73;1.63;;;7.70;77.70;;;;;;5056415;28;20154;-85
2021/12/05 10:37:23;;;;;;;2.05;1.85;;;7.70;77.70;;;;;;5039486;28;20031;-87
2021/12/05 10:40:09;;;;;;;2.03;1.83;;;7.70;77.70;;;;;;5039617;28;20029;-84
2021/12/05 10:42:45;;;;;;;2.47;2.10;;;7.70;77.90;;;;;;5039522;28;20055;-85
2021/12/05 10:45:20;;;;;;;2.85;2.20;;;7.70;77.70;;;;;;5039964;28;20033;-86
2021/12/05 10:47:51;;;;;;;2.30;2.10;;;7.70;77.70;;;;;;5039396;28;20076;-88
2021/12/05 10:50:27;;;;;;;2.15;1.92;;;7.70;77.70;;;;;;5023123;28;20033;-87
2021/12/05 10:53:27;;;;;;;2.15;1.95;;;7.70;77.70;;;;;;5039655;28;20477;-88
2021/12/05 10:56:11;;;;;;;2.55;2.00;;;7.70;77.80;;;;;;5056668;28;20033;-86
2021/12/05 10:58:51;;;;;;;2.73;2.00;;;7.80;77.70;;;;;;5039965;28;20029;-86
2021/12/05 11:01:34;;;;;;;2.20;2.00;;;7.70;77.60;;;;;;5056214;28;20043;-86
2021/12/05 11:04:27;;;;;;;2.13;1.90;;;7.80;77.80;;;;;;5039607;28;20108;-90
2021/12/05 11:07:12;;;;;;;2.28;2.08;;;7.80;77.90;;;;;;5039163;28;20141;-86
2021/12/05 11:09:49;;;;;;;2.03;1.85;;;7.80;77.80;;;;;;5039641;28;20430;-86
2021/12/05 11:12:28;;;;;;;2.53;2.10;;;7.80;77.80;;;;;;5055597;28;20075;-87
2021/12/05 11:15:01;;;;;;;2.55;2.08;;;7.80;77.80;;;;;;5056194;28;20458;-87
2021/12/05 11:17:37;;;;;;;2.47;2.00;;;7.80;77.80;;;;;;5039410;28;20078;-87
2021/12/05 11:20:09;;;;;;;2.30;2.10;;;7.80;77.80;;;;;;5038532;28;20072;-89
2021/12/05 11:22:44;;;;;;;2.20;2.00;;;7.90;77.80;;;;;;5056178;28;20029;-86
2021/12/05 11:25:21;;;;;;;;;;;7.90;77.80;;;;;;5040448;28;20045;-87
2021/12/05 11:27:49;;;;;;;2.17;1.90;;;7.90;77.70;;;;;;5038990;28;20008;-87
2021/12/05 11:30:33;;;;;;;2.85;2.28;;;7.90;77.60;;;;;;5038802;28;20067;-87
2021/12/05 11:33:17;;;;;;;2.47;2.28;;;7.90;77.80;;;;;;5039354;28;20048;-86
2021/12/05 11:35:50;;;;;;;2.15;1.95;;;7.90;77.80;;;;;;5056740;28;20460;-88
2021/12/05 11:38:17;;;;;;;2.85;2.30;;;7.90;77.80;;;;;;5055785;28;20037;-84
2021/12/05 11:40:43;;;;;;;2.42;2.20;;;7.90;77.70;;;;;;5055489;28;20025;-86
2021/12/05 11:43:12;;;;;;;3.00;2.15;;;7.90;77.70;;;;;;5039039;28;20432;-86
2021/12/05 11:46:13;;;;;;;2.88;2.35;;;8.00;77.80;;;;;;5054890;28;20463;-85
2021/12/05 11:48:45;;;;;;;2.58;2.38;;;8.00;77.90;;;;;;5055404;28;20033;-85
2021/12/05 11:51:29;;;;;;;3.00;2.40;;;8.00;77.70;;;;;;5055197;28;20064;-85
2021/12/05 11:54:09;;;;;;;2.27;2.07;;;8.00;77.80;;;;;;5056460;28;20040;-85
2021/12/05 11:56:34;;;;;;;2.58;2.20;;;8.00;77.80;;;;;;5055001;28;20272;-85
2021/12/05 11:59:21;;;;;;;2.25;2.00;;;8.00;77.70;;;;;;5054635;28;20050;-85
2021/12/05 12:02:08;;;;;;;2.28;2.08;;;8.10;77.80;;;;;;5055951;28;20527;-85
2021/12/05 12:04:42;;;;;;;2.83;2.22;;;8.10;77.80;;;;;;5038750;28;20032;-84
2021/12/05 12:07:37;;;;;;;2.33;2.13;;;8.10;77.70;;;;;;5055467;28;20497;-86
2021/12/05 12:10:28;;;;;;;2.33;2.10;;;8.10;77.80;;;;;;5038257;28;20488;-85
2021/12/05 12:12:57;;;;;;;2.55;2.22;;;8.10;77.70;;;;;;5055411;28;20052;-85
2021/12/05 12:15:25;;;;;;;2.75;2.25;;;8.10;77.70;;;;;;5038228;28;20025;-85
2021/12/05 12:17:55;;;;;;;2.65;2.17;;;8.10;77.70;;;;;;5055994;28;20146;-85
2021/12/05 12:20:24;;;;;;;3.00;2.35;;;8.10;77.70;;;;;;5038632;28;20041;-85
2021/12/05 12:22:52;;;;;;;3.13;2.40;;;8.20;77.70;;;;;;5055772;28;20036;-86
2021/12/05 12:25:21;;;;;;;3.40;2.30;;;8.20;77.70;;;;;;5055592;28;20029;-85
2021/12/05 12:27:48;;;;;;;2.83;2.30;;;8.20;77.70;;;;;;5054323;28;20025;-85
2021/12/05 12:30:24;;;;;;;3.60;2.58;;;8.20;77.70;;;;;;5054571;28;20048;-84
2021/12/05 12:32:52;;;;;;;2.50;2.22;;;8.30;77.70;;;;;;5055408;28;20106;-85
2021/12/05 12:35:23;;;;;;;3.40;2.50;;;8.20;77.60;;;;;;5037958;28;20025;-87
2021/12/05 12:38:00;;;;;;;2.70;2.35;;;8.30;77.60;;;;;;5037465;28;20077;-86
2021/12/05 12:40:40;;;;;;;2.78;2.40;;;8.30;77.60;;;;;;5054756;28;20112;-85
2021/12/05 12:43:08;;;;;;;2.75;2.40;;;8.30;77.70;;;;;;5054289;28;20036;-86
2021/12/05 12:45:40;;;;;;;2.58;2.33;;;8.30;77.60;;;;;;5054407;28;20028;-85
2021/12/05 12:48:12;;;;;;;3.00;2.33;;;8.30;77.60;;;;;;5054624;28;20025;-86
2021/12/05 12:50:51;;;;;;;3.20;2.60;;;8.30;77.60;;;;;;5053824;28;20080;-86
2021/12/05 12:53:29;;;;;;;2.80;2.38;;;8.30;77.60;;;;;;5054621;28;20032;-86
2021/12/05 12:56:19;;;;;;;2.63;2.17;;;8.30;77.50;;;;;;5054950;28;20029;-85
2021/12/05 12:58:49;;;;;;;2.65;2.42;;;8.40;77.60;;;;;;5054553;28;20036;-85
2021/12/05 13:10:02;;;;;;;2.92;2.30;;;8.40;77.50;;;;;;5054685;28;20093;-85
2021/12/05 13:12:40;;;;;;;2.55;2.28;;;8.40;77.40;;;;;;5053826;28;20527;-84
2021/12/05 13:15:17;;;;;;;3.33;2.35;;;8.40;77.50;;;;;;5037847;28;20065;-85
2021/12/05 13:17:47;;;;;;;2.80;2.20;;;8.40;77.50;;;;;;5037788;28;20056;-85
2021/12/05 13:20:25;;;;;;;2.83;2.47;;;8.50;77.50;;;;;;5054586;28;20025;-85
2021/12/05 13:23:20;;;;;;;2.92;2.60;;;8.50;77.50;;;;;;5053772;28;20037;-85
2021/12/05 13:26:23;;;;;;;2.78;2.42;;;8.50;77.50;;;;;;5037236;28;20044;-85
2021/12/05 13:29:18;;;;;;;2.72;2.28;;;8.50;77.50;;;;;;5036841;28;20068;-89
2021/12/05 13:31:54;;;;;;;3.15;2.53;;;8.50;77.40;;;;;;5036710;28;20029;-85
2021/12/05 13:34:20;;;;;;;2.80;2.53;;;8.50;77.40;;;;;;5036560;28;20424;-88
2021/12/05 13:36:57;;;;;;;2.90;2.40;;;8.50;77.40;;;;;;5036784;28;20112;-85
2021/12/05 13:39:31;;;;;;;3.17;2.70;;;8.50;77.50;;;;;;5053717;28;20033;-86
2021/12/05 13:42:03;;;;;;;3.38;2.55;;;8.50;77.40;;;;;;5053653;28;20032;-91
2021/12/05 13:45:02;;;;;;;2.67;2.40;;;8.50;77.40;;;;;;5053996;28;20116;-86
2021/12/05 13:47:32;;;;;;;3.22;2.53;;;8.50;77.50;;;;;;4996422;28;20037;-87
2021/12/05 13:50:17;;;;;;;2.55;2.20;;;8.50;77.30;;;;;;5037047;28;20167;-87
2021/12/05 13:53:02;;;;;;;3.20;2.38;;;8.60;77.50;;;;;;5057662;28;20099;-87
2021/12/05 13:55:53;;;;;;;3.23;2.60;;;8.60;77.50;;;;;;5057938;28;20025;-86
2021/12/05 13:58:32;;;;;;;2.78;2.45;;;8.60;77.50;;;;;;5041348;28;20061;-86
2021/12/05 14:01:16;;;;;;;2.70;2.05;;;8.60;77.40;;;;;;5058134;28;20033;-86
2021/12/05 14:04:10;;;;;;;3.17;2.65;;;8.60;77.40;;;;;;5058244;28;20037;-86
2021/12/05 14:06:53;;;;;;;3.58;2.70;;;8.60;77.50;;;;;;5056956;28;20049;-85
2021/12/05 14:09:26;;;;;;;2.50;2.30;;;8.60;77.30;;;;;;5057442;28;20084;-86
2021/12/05 14:12:14;;;;;;;2.72;2.42;;;8.60;77.40;;;;;;5058038;28;20057;-85
2021/12/05 14:15:00;;;;;;;2.90;2.60;;;8.60;77.40;;;;;;5040820;28;20457;-86
2021/12/05 14:17:35;;;;;;;3.03;2.45;;;8.60;77.40;;;;;;5040709;28;20040;-86
2021/12/05 14:20:03;;;;;;;2.88;2.45;;;8.60;77.40;;;;;;5058635;28;20449;-86
2021/12/05 14:22:34;;;;;;;3.10;2.60;;;8.60;77.30;;;;;;5048796;28;20029;-91
2021/12/05 14:25:04;;;;;;;3.70;2.90;;;8.60;77.30;;;;;;5047481;28;20130;-87
2021/12/05 14:27:34;;;;;;;3.20;2.63;;;8.60;77.30;;;;;;5040674;28;20438;-86
2021/12/05 14:30:01;;;;;;;2.60;2.15;;;8.70;77.30;;;;;;5057005;28;20124;-86
2021/12/05 14:32:36;;;;;;;3.20;2.70;;;8.70;77.30;;;;;;5023258;28;20028;-87
2021/12/05 14:35:01;;;;;;;3.70;2.70;;;8.70;77.30;;;;;;5056842;28;20040;-86
2021/12/05 14:37:33;;;;;;;3.97;2.80;;;8.70;77.30;;;;;;5040281;28;20033;-87
2021/12/05 14:40:18;;;;;;;3.00;2.58;;;8.70;77.30;;;;;;5039912;28;20039;-88
2021/12/05 14:42:46;;;;;;;3.22;2.50;;;8.70;77.30;;;;;;5040079;28;20041;-86
2021/12/05 14:45:18;;;;;;;3.17;2.42;;;8.70;77.20;;;;;;5056164;28;20029;-91
2021/12/05 14:47:45;;;;;;;3.58;2.70;;;8.70;77.20;;;;;;5040323;28;20486;-86
2021/12/05 14:50:25;;;;;;;2.92;2.47;;;8.70;77.20;;;;;;5056667;28;20033;-87
2021/12/05 14:52:57;;;;;;;3.13;2.47;;;8.70;77.30;;;;;;5055935;28;20029;-89
2021/12/05 14:55:27;;;;;;;3.70;2.50;;;8.70;77.30;;;;;;5056212;28;20036;-88
2021/12/05 14:58:07;;;;;;;3.55;2.50;;;8.70;77.30;;;;;;5040399;28;20029;-88
2021/12/05 15:00:49;;;;;;;3.15;2.50;;;8.70;77.30;;;;;;5056126;28;20029;-87
2021/12/05 15:03:18;;;;;;;3.50;2.67;;;8.70;77.30;;;;;;5039643;28;20082;-87
2021/12/05 15:05:51;;;;;;;3.05;2.45;;;8.70;77.20;;;;;;5038478;28;20393;-86
2021/12/05 15:08:20;;;;;;;2.88;2.40;;;8.70;77.30;;;;;;5056061;28;20029;-85
2021/12/05 15:10:52;;;;;;;2.67;2.28;;;8.70;77.20;;;;;;5055999;28;20064;-84
2021/12/05 15:13:18;;;;;;;3.03;2.60;;;8.70;77.20;;;;;;5056116;28;20478;-84
2021/12/05 15:15:45;;;;;;;2.95;2.47;;;8.70;77.20;;;;;;5039818;28;20166;-83
2021/12/05 15:18:16;;;;;;;2.90;2.60;;;8.70;77.20;;;;;;5022751;28;20040;-84
2021/12/05 15:20:45;;;;;;;3.38;2.58;;;8.70;77.20;;;;;;5057011;28;20036;-85
2021/12/05 15:23:11;;;;;;;3.08;2.42;;;8.70;77.20;;;;;;5055547;28;20112;-84
2021/12/05 15:25:40;;;;;;;3.35;2.60;;;8.70;77.20;;;;;;5055555;28;20076;-85
2021/12/05 15:28:07;;;;;;;3.35;2.70;;;8.70;77.20;;;;;;5042760;28;20093;-85
2021/12/05 15:30:45;;;;;;;2.88;2.40;;;8.70;77.10;;;;;;5069319;28;20025;-86
2021/12/05 15:33:14;;;;;;;3.22;2.55;;;8.70;77.10;;;;;;5050958;28;20033;-84
2021/12/05 15:35:41;;;;;;;3.35;2.60;;;8.70;77.10;;;;;;5043144;28;20017;-84
2021/12/05 15:38:13;;;;;;;2.97;2.50;;;8.70;77.10;;;;;;5038865;28;20033;-85
2021/12/05 15:40:42;;;;;;;2.85;2.35;;;8.70;77.20;;;;;;5055312;28;20033;-85
2021/12/05 15:43:18;;;;;;;3.13;2.58;;;8.70;77.20;;;;;;5039065;28;20033;-84
2021/12/05 15:45:46;;;;;;;3.40;2.60;;;8.70;77.10;;;;;;5055633;28;20028;-84
2021/12/05 15:48:21;;;;;;;4.38;2.92;;;8.70;77.10;;;;;;5055345;28;20051;-84
2021/12/05 15:50:49;;;;;;;2.95;2.50;;;8.70;77.20;;;;;;5056096;28;20119;-84
2021/12/05 15:53:15;;;;;;;3.70;2.72;;;8.70;77.10;;;;;;5053868;28;20031;-85
2021/12/05 15:55:42;;;;;;;3.63;2.42;;;8.70;77.10;;;;;;5055871;28;20456;-85
2021/12/05 15:58:18;;;;;;;3.67;2.70;;;8.70;77.10;;;;;;5055144;28;20021;-85
2021/12/05 16:00:50;;;;;;;2.83;2.47;;;8.70;77.10;;;;;;5039209;28;20078;-84
2021/12/05 16:03:25;;;;;;;4.55;2.88;;;8.70;77.10;;;;;;5054775;28;20071;-82
2021/12/05 16:06:00;;;;;;;3.63;2.70;;;8.70;77.10;;;;;;5055729;28;20045;-84
2021/12/05 16:08:30;;;;;;;3.30;2.70;;;8.70;77.20;;;;;;5055941;28;20021;-86
2021/12/05 16:10:59;;;;;;;3.50;2.67;;;8.70;77.10;;;;;;5038736;28;20120;-86
2021/12/05 16:13:30;;;;;;;2.95;2.50;;;8.60;77.10;;;;;;5037170;28;20055;-87
2021/12/05 16:16:08;;;;;;;2.80;2.55;;;8.60;77.10;;;;;;5056449;28;20538;-85
2021/12/05 16:18:36;;;;;;;2.78;2.50;;;8.60;77.10;;;;;;5055968;28;20024;-86
2021/12/05 16:21:05;;;;;;;3.13;2.67;;;8.60;77.10;;;;;;5054725;28;20063;-86
2021/12/05 16:23:35;;;;;;;2.97;2.60;;;8.60;77.10;;;;;;5054919;28;20036;-86
2021/12/05 16:26:09;;;;;;;3.25;2.40;;;8.60;77.10;;;;;;5029578;28;20029;-87
2021/12/05 16:29:04;;;;;;;3.50;2.70;;;8.60;77.10;;;;;;5054672;28;20116;-86
2021/12/05 16:31:42;;;;;;;2.97;2.47;;;8.60;77.10;;;;;;5044989;28;20036;-87
2021/12/05 16:34:11;;;;;;;3.55;2.80;;;8.60;77.10;;;;;;5039301;28;20025;-86
2021/12/05 16:36:53;;;;;;;3.55;2.80;;;8.60;77.10;;;;;;5069681;28;20021;-88
2021/12/05 16:39:23;;;;;;;3.55;2.63;;;8.60;77.20;;;;;;5068740;28;20449;-86
2021/12/05 16:41:53;;;;;;;4.40;3.00;;;8.60;77.10;;;;;;5038559;28;20029;-87
2021/12/05 16:44:28;;;;;;;3.63;2.90;;;8.60;77.10;;;;;;5055108;28;20036;-85
2021/12/05 16:46:57;;;;;;;3.50;2.55;;;8.60;77.20;;;;;;5054618;28;20077;-85
2021/12/05 16:49:32;;;;;;;4.28;2.90;;;8.60;77.10;;;;;;5037513;28;20465;-86
2021/12/05 16:52:05;;;;;;;3.88;3.00;;;8.60;77.10;;;;;;5038085;28;20036;-86
2021/12/05 16:55:24;;;;;;;4.75;2.85;;;8.60;77.10;;;;;;5055640;28;20028;-86
2021/12/05 16:58:04;;;;;;;3.60;2.80;;;8.50;77.20;;;;;;5026449;28;20051;-86
2021/12/05 17:00:31;;;;;;;3.35;2.53;;;8.60;77.10;;;;;;5054010;28;20033;-85
2021/12/05 17:03:05;;;;;;;3.95;2.58;;;8.60;77.10;;;;;;5037404;28;20098;-85
2021/12/05 17:05:36;;;;;;;3.15;2.47;;;8.50;77.10;;;;;;5053902;28;20028;-86
2021/12/05 17:08:16;;;;;;;3.33;2.78;;;8.50;77.10;;;;;;5051305;28;20516;-86
2021/12/05 17:10:46;;;;;;;3.45;2.58;;;8.50;77.20;;;;;;5054749;28;20037;-87
2021/12/05 17:13:32;;;;;;;3.15;2.50;;;8.50;77.10;;;;;;5037579;28;20029;-85
2021/12/05 17:16:06;;;;;;;3.30;2.55;;;8.50;77.20;;;;;;5037890;28;20334;-87
2021/12/05 17:18:34;;;;;;;2.75;2.42;;;8.50;77.10;;;;;;5037937;28;20154;-87
2021/12/05 17:21:08;;;;;;;3.63;2.60;;;8.50;77.10;;;;;;5037694;28;20405;-84
2021/12/05 17:23:42;;;;;;;3.90;2.90;;;8.50;77.20;;;;;;5037363;28;20091;-82
2021/12/05 17:26:10;;;;;;;3.33;2.72;;;8.50;77.20;;;;;;5054464;28;20025;-85
2021/12/05 17:29:05;;;;;;;3.83;2.95;;;8.50;77.10;;;;;;5053710;28;20485;-85
2021/12/05 17:31:41;;;;;;;4.18;3.00;;;8.50;77.30;;;;;;5024607;28;20433;-88
2021/12/05 17:34:22;;;;;;;4.80;3.40;;;8.50;77.20;;;;;;5053746;28;20025;-87
2021/12/05 17:37:13;;;;;;;5.00;3.78;;;8.50;77.20;;;;;;5055190;28;20029;-88
2021/12/05 17:39:45;;;;;;;4.28;2.90;;;8.50;77.30;;;;;;5036919;28;20029;-88
2021/12/05 17:42:14;;;;;;;4.45;2.67;;;8.50;77.20;;;;;;5055240;28;20037;-88
2021/12/05 17:44:41;;;;;;;4.88;2.80;;;8.50;77.20;;;;;;5072259;28;20073;-86
2021/12/05 17:50:52;;;;;;;4.05;2.90;;;8.50;77.20;;;;;;5044277;28;20056;-85
2021/12/05 17:53:18;;;;;;;4.28;3.05;;;8.50;77.10;;;;;;5037793;28;20037;-86
2021/12/05 17:55:46;;;;;;;3.90;3.03;;;8.50;77.20;;;;;;5036879;28;20025;-86
2021/12/05 18:03:51;;;;;;;4.43;3.22;;;8.40;77.20;;;;;;5039585;28;20136;-86
2021/12/05 18:06:19;;;;;;;4.20;3.30;;;8.40;77.10;;;;;;5036570;28;20049;-84
2021/12/05 18:08:46;;;;;;;4.63;3.53;;;8.40;77.20;;;;;;5036225;28;20025;-85
2021/12/05 18:11:19;;;;;;;4.43;3.47;;;8.40;77.20;;;;;;5053603;28;20039;-86
2021/12/05 18:13:48;;;;;;;3.60;2.92;;;8.40;77.20;;;;;;5054450;28;20072;-87
2021/12/05 18:16:16;;;;;;;4.95;3.47;;;8.40;77.20;;;;;;5053462;28;20159;-88
2021/12/05 18:18:42;;;;;;;4.50;3.40;;;8.40;77.20;;;;;;5053465;28;20041;-88
2021/12/05 18:21:10;;;;;;;4.20;3.35;;;8.40;77.20;;;;;;5053612;28;20063;-87
2021/12/05 18:23:38;;;;;;;4.50;3.40;;;8.40;77.20;;;;;;5053700;28;20037;-85
2021/12/05 18:26:05;;;;;;;4.90;3.40;;;8.40;77.20;;;;;;5036366;28;20031;-87
2021/12/05 18:28:32;;;;;;;4.80;3.50;;;8.40;77.20;;;;;;5036711;28;20029;-89
2021/12/05 18:30:59;;;;;;;5.25;3.60;;;8.40;77.20;;;;;;5053296;28;20028;-88
2021/12/05 18:33:28;;;;;;;5.78;3.50;;;8.40;77.20;;;;;;5019142;28;20021;-88
2021/12/05 18:35:55;;;;;;;4.90;3.55;;;8.40;77.20;;;;;;5053016;28;20036;-87
2021/12/05 18:38:23;;;;;;;5.78;3.92;;;8.40;77.20;;;;;;5039286;28;20021;-87
2021/12/05 18:40:51;;;;;;;5.00;3.60;;;8.40;77.20;;;;;;5057056;28;20040;-83
2021/12/05 18:43:21;;;;;;;4.72;3.33;;;8.50;77.30;;;;;;5040315;28;20037;-89
2021/12/05 18:45:47;;;;;;;5.38;3.67;;;8.40;77.20;;;;;;5040893;28;20061;-90
2021/12/05 18:48:13;;;;;;;5.00;3.38;;;8.40;77.20;;;;;;5041208;28;20017;-90
2021/12/05 18:50:44;;;;;;;5.30;3.78;;;8.40;77.20;;;;;;5063709;28;20032;-87
2021/12/05 18:53:12;;;;;;;4.05;3.33;;;8.40;77.20;;;;;;5056786;28;20025;-89
2021/12/05 18:55:39;;;;;;;5.68;3.67;;;8.40;77.20;;;;;;5058302;28;20083;-89
2021/12/05 18:58:09;;;;;;;4.97;3.65;;;8.40;77.20;;;;;;5057431;28;20025;-89
2021/12/05 19:04:21;;;;;;;4.53;3.53;;;8.40;77.20;;;;;;5056666;28;20033;-89
2021/12/05 19:06:19;;;;;;;5.40;3.78;;;8.40;77.20;;;;;;5055712;28;20037;-88
2021/12/05 19:14:07;;;;;;;6.00;4.00;;;8.40;77.20;;;;;;5055690;28;20070;-88
2021/12/05 19:16:33;;;;;;;6.10;4.18;;;8.40;77.20;;;;;;5039915;28;20029;-88